Time;durP1;ratioP1;P1;durP2;ratioP2;P2;SDS_P1;SDS_P2;PMS_P1;PMS_P2;Temp;Humidity;BMP_temperature;BMP_pressure;BME280_temperature;BME280_humidity;BME280_pressure;Samples;Min_cycle;Max_cycle;Signal;HPM_P1;HPM_P2
2023/08/03 00:00:04;;;;;;;3.40;1.35;;;17.00;99.90;;;;;;5041113;28;20149;-39
2023/08/03 00:02:34;;;;;;;3.27;1.30;;;17.00;99.90;;;;;;5051331;28;20024;-39
2023/08/03 00:05:01;;;;;;;4.10;1.25;;;17.00;99.90;;;;;;5053038;28;20807;-40
2023/08/03 00:07:27;;;;;;;4.65;1.35;;;17.00;99.90;;;;;;5038455;28;20459;-40
2023/08/03 00:09:53;;;;;;;8.50;1.35;;;17.10;99.90;;;;;;5033291;28;20044;-39
2023/08/03 00:12:18;;;;;;;3.80;1.23;;;17.10;99.90;;;;;;5032754;28;20037;-40
2023/08/03 00:14:44;;;;;;;6.45;1.63;;;17.10;99.90;;;;;;5045288;28;20105;-40
2023/08/03 00:17:10;;;;;;;6.15;1.83;;;17.10;99.90;;;;;;5053393;28;20537;-39
2023/08/03 00:19:36;;;;;;;3.42;1.42;;;17.10;99.90;;;;;;5052951;28;20112;-39
2023/08/03 00:22:01;;;;;;;6.88;1.65;;;17.10;99.90;;;;;;5053016;28;20025;-41
2023/08/03 00:24:27;;;;;;;9.68;2.55;;;17.20;99.90;;;;;;5052888;28;20549;-43
2023/08/03 00:26:52;;;;;;;10.80;2.08;;;17.20;99.90;;;;;;5051935;28;20424;-40
2023/08/03 00:29:18;;;;;;;5.85;1.63;;;17.10;99.90;;;;;;5052919;28;20029;-41
2023/08/03 00:31:44;;;;;;;7.05;2.58;;;17.10;99.90;;;;;;5053072;28;20021;-37
2023/08/03 00:34:09;;;;;;;12.70;2.20;;;17.10;99.90;;;;;;5053088;28;20070;-40
2023/08/03 00:36:35;;;;;;;5.43;1.83;;;17.10;99.90;;;;;;5052794;28;20389;-41
2023/08/03 00:39:01;;;;;;;15.80;1.73;;;17.20;99.90;;;;;;5052644;28;20036;-43
2023/08/03 00:41:27;;;;;;;16.85;2.67;;;17.20;99.90;;;;;;5052682;28;20021;-40
2023/08/03 00:43:52;;;;;;;9.75;2.10;;;17.20;99.90;;;;;;5051714;28;20505;-42
2023/08/03 00:46:18;;;;;;;10.35;1.98;;;17.20;99.90;;;;;;5052757;28;20025;-44
2023/08/03 00:48:44;;;;;;;12.93;1.95;;;17.20;99.90;;;;;;5055831;28;20025;-54
2023/08/03 00:51:09;;;;;;;6.47;1.10;;;17.20;99.90;;;;;;5072718;28;20131;-53
2023/08/03 00:53:35;;;;;;;5.05;1.20;;;17.30;99.90;;;;;;5060993;28;20025;-55
2023/08/03 00:56:00;;;;;;;7.10;1.50;;;17.20;99.90;;;;;;5052624;28;20033;-51
2023/08/03 00:58:26;;;;;;;3.63;1.30;;;17.20;99.90;;;;;;5052530;28;20478;-54
2023/08/03 01:00:52;;;;;;;9.18;1.05;;;17.20;99.90;;;;;;5050323;28;20132;-55
2023/08/03 01:03:18;;;;;;;4.53;1.98;;;17.20;99.90;;;;;;5052190;28;20529;-54
2023/08/03 01:05:43;;;;;;;6.82;1.15;;;17.20;99.90;;;;;;5051629;28;20504;-55
2023/08/03 01:08:09;;;;;;;1.35;1.23;;;17.20;99.90;;;;;;5052051;28;20037;-53
2023/08/03 01:10:35;;;;;;;14.75;1.58;;;17.20;99.90;;;;;;5052445;28;20573;-55
2023/08/03 01:13:01;;;;;;;5.32;1.00;;;17.20;99.90;;;;;;5052675;28;20039;-55
2023/08/03 01:15:27;;;;;;;4.07;1.10;;;17.20;99.90;;;;;;5052614;28;20416;-52
2023/08/03 01:17:52;;;;;;;8.88;1.38;;;17.20;99.90;;;;;;5049356;28;20030;-55
2023/08/03 01:20:19;;;;;;;9.70;2.20;;;17.20;99.90;;;;;;5036504;28;20389;-55
2023/08/03 01:22:45;;;;;;;3.50;1.23;;;17.20;99.90;;;;;;5054416;28;20426;-55
2023/08/03 01:25:11;;;;;;;5.57;1.27;;;17.20;99.90;;;;;;5056185;28;20163;-54
2023/08/03 01:27:37;;;;;;;8.50;2.70;;;17.20;99.90;;;;;;5056548;28;20529;-53
2023/08/03 01:30:06;;;;;;;6.68;1.77;;;17.30;99.90;;;;;;5056159;28;20037;-40
2023/08/03 01:32:31;;;;;;;8.05;1.38;;;17.30;99.90;;;;;;5056423;28;20032;-54
2023/08/03 01:34:57;;;;;;;4.32;1.40;;;17.30;99.90;;;;;;5055376;28;20108;-53
2023/08/03 01:37:26;;;;;;;5.15;1.50;;;17.30;99.90;;;;;;5053792;28;20075;-54
2023/08/03 01:39:51;;;;;;;5.68;1.77;;;17.30;99.90;;;;;;5036119;28;20025;-53
2023/08/03 01:42:17;;;;;;;6.72;2.00;;;17.40;99.90;;;;;;5035973;28;20026;-56
2023/08/03 01:44:43;;;;;;;4.88;1.95;;;17.30;99.90;;;;;;5036235;28;20029;-54
2023/08/03 01:47:09;;;;;;;4.30;1.70;;;17.40;99.90;;;;;;5036029;28;20512;-56
2023/08/03 01:49:35;;;;;;;3.08;1.45;;;17.40;99.90;;;;;;5036226;28;20049;-52
2023/08/03 01:52:01;;;;;;;6.95;1.80;;;17.40;99.90;;;;;;5036537;28;20049;-54
2023/08/03 01:54:27;;;;;;;8.07;1.75;;;17.40;99.90;;;;;;5036026;28;20025;-55
2023/08/03 01:56:53;;;;;;;7.22;2.00;;;17.40;99.90;;;;;;5035686;28;20087;-54
2023/08/03 01:59:19;;;;;;;6.53;1.70;;;17.40;99.90;;;;;;5035765;28;20034;-54
2023/08/03 02:01:44;;;;;;;7.22;2.00;;;17.40;99.90;;;;;;5035056;28;20556;-52
2023/08/03 02:04:10;;;;;;;7.63;1.80;;;17.40;99.90;;;;;;5055820;28;20029;-55
2023/08/03 02:06:37;;;;;;;9.27;2.20;;;17.40;99.90;;;;;;5055542;28;20036;-55
2023/08/03 02:09:04;;;;;;;8.57;2.07;;;17.40;99.90;;;;;;5055239;28;20401;-55
2023/08/03 02:11:30;;;;;;;12.07;3.20;;;17.40;99.90;;;;;;5055679;28;20763;-55
2023/08/03 02:13:56;;;;;;;6.60;1.95;;;17.40;99.90;;;;;;5070124;28;20031;-56
2023/08/03 02:16:21;;;;;;;5.50;1.60;;;17.40;99.90;;;;;;5075642;28;20025;-55
2023/08/03 02:18:47;;;;;;;4.20;1.98;;;17.40;99.90;;;;;;5045588;28;20022;-55
2023/08/03 02:21:13;;;;;;;5.65;1.90;;;17.40;99.90;;;;;;5035607;28;20025;-54
2023/08/03 02:23:38;;;;;;;5.30;2.45;;;17.40;99.90;;;;;;5040384;28;20032;-55
2023/08/03 02:26:04;;;;;;;10.55;2.17;;;17.40;99.90;;;;;;5055528;28;20422;-56
2023/08/03 02:28:30;;;;;;;3.60;1.77;;;17.40;99.90;;;;;;5055353;28;20102;-55
2023/08/03 02:30:57;;;;;;;8.63;2.13;;;17.40;99.90;;;;;;5055049;28;20039;-56
2023/08/03 02:33:22;;;;;;;6.63;1.58;;;17.40;99.90;;;;;;5055019;28;20035;-55
2023/08/03 02:35:48;;;;;;;8.20;2.08;;;17.40;99.90;;;;;;5054948;28;20025;-55
2023/08/03 02:38:14;;;;;;;8.48;2.28;;;17.50;99.90;;;;;;5055128;28;20068;-58
2023/08/03 02:40:40;;;;;;;3.60;1.58;;;17.50;99.90;;;;;;5063531;28;20016;-56
2023/08/03 02:43:06;;;;;;;8.15;2.63;;;17.40;99.90;;;;;;5074845;28;20093;-56
2023/08/03 02:45:31;;;;;;;8.85;1.80;;;17.40;99.90;;;;;;5075084;28;20024;-55
2023/08/03 02:47:57;;;;;;;2.65;1.58;;;17.40;99.90;;;;;;5064452;28;20120;-56
2023/08/03 02:50:23;;;;;;;11.45;2.00;;;17.40;99.90;;;;;;5061058;28;20109;-55
2023/08/03 02:52:49;;;;;;;1.70;1.38;;;17.50;99.90;;;;;;5046395;28;20363;-56
2023/08/03 02:55:16;;;;;;;4.88;1.30;;;17.40;99.90;;;;;;5054622;28;20375;-56
2023/08/03 02:57:42;;;;;;;3.70;1.17;;;17.40;99.90;;;;;;5062372;28;20032;-55
2023/08/03 03:00:09;;;;;;;14.63;1.48;;;17.50;99.90;;;;;;5064667;28;20025;-56
2023/08/03 03:02:36;;;;;;;3.78;1.88;;;17.50;99.90;;;;;;5069862;28;20024;-56
2023/08/03 03:05:02;;;;;;;3.63;1.50;;;17.50;99.90;;;;;;5074527;28;20484;-55
2023/08/03 03:07:31;;;;;;;2.05;1.48;;;17.50;99.90;;;;;;5072722;28;20033;-55
2023/08/03 03:10:00;;;;;;;4.00;1.83;;;17.50;99.90;;;;;;5074604;28;20028;-56
2023/08/03 03:12:25;;;;;;;5.78;1.88;;;17.50;99.90;;;;;;5074255;28;20032;-58
2023/08/03 03:14:51;;;;;;;4.32;1.92;;;17.50;99.90;;;;;;5074261;28;20078;-56
2023/08/03 03:17:17;;;;;;;2.22;1.67;;;17.50;99.90;;;;;;5064854;28;20029;-56
2023/08/03 03:19:42;;;;;;;1.60;1.23;;;17.50;99.90;;;;;;5067335;28;20071;-55
2023/08/03 03:22:08;;;;;;;3.55;1.83;;;17.40;99.90;;;;;;5074155;28;20048;-56
2023/08/03 03:24:34;;;;;;;2.63;1.15;;;17.40;99.90;;;;;;5068412;28;20032;-55
2023/08/03 03:27:00;;;;;;;13.35;1.60;;;17.40;99.90;;;;;;5074347;28;20024;-56
2023/08/03 03:29:25;;;;;;;3.78;1.23;;;17.40;99.90;;;;;;5073993;28;20073;-56
2023/08/03 03:31:51;;;;;;;2.25;1.45;;;17.40;99.90;;;;;;5061197;28;20048;-61
2023/08/03 03:34:17;;;;;;;5.43;1.67;;;17.30;99.90;;;;;;5045383;28;20036;-56
2023/08/03 03:36:42;;;;;;;4.85;1.55;;;17.30;99.90;;;;;;5053831;28;20115;-56
2023/08/03 03:39:08;;;;;;;4.70;2.10;;;17.40;99.90;;;;;;5053943;28;20473;-56
2023/08/03 03:41:33;;;;;;;7.70;2.00;;;17.30;99.90;;;;;;5057088;28;20032;-56
2023/08/03 03:43:59;;;;;;;5.30;1.83;;;17.30;99.90;;;;;;5073684;28;20040;-55
2023/08/03 03:46:25;;;;;;;7.63;2.92;;;17.30;99.90;;;;;;5069334;28;20036;-54
2023/08/03 03:48:50;;;;;;;2.88;1.67;;;17.30;99.90;;;;;;5073594;28;20062;-55
2023/08/03 03:51:18;;;;;;;4.30;1.80;;;17.30;99.90;;;;;;5071834;28;20885;-55
2023/08/03 03:53:44;;;;;;;2.00;1.38;;;17.30;99.90;;;;;;5073681;28;20465;-55
2023/08/03 03:56:10;;;;;;;5.45;1.65;;;17.30;99.90;;;;;;5073270;28;20047;-55
2023/08/03 03:58:36;;;;;;;5.10;1.80;;;17.30;99.90;;;;;;5073644;28;20025;-53
2023/08/03 04:01:01;;;;;;;2.97;1.90;;;17.30;99.90;;;;;;5072116;28;20495;-51
2023/08/03 04:03:27;;;;;;;4.80;2.20;;;17.20;99.90;;;;;;5070117;28;20074;-54
2023/08/03 04:05:53;;;;;;;5.35;2.05;;;17.20;99.90;;;;;;5073287;28;20029;-54
2023/08/03 04:08:19;;;;;;;3.20;1.80;;;17.10;99.90;;;;;;5073269;28;20475;-52
2023/08/03 04:10:44;;;;;;;4.57;1.73;;;17.10;99.90;;;;;;5073239;28;20040;-51
2023/08/03 04:13:10;;;;;;;4.13;1.83;;;17.10;99.90;;;;;;5071396;28;20473;-54
2023/08/03 04:15:36;;;;;;;5.55;1.90;;;17.10;99.90;;;;;;5073116;28;20021;-53
2023/08/03 04:18:01;;;;;;;5.22;1.92;;;17.10;99.90;;;;;;5068808;28;20043;-54
2023/08/03 04:20:27;;;;;;;3.95;1.00;;;17.00;99.90;;;;;;5068498;28;20025;-57
2023/08/03 04:22:53;;;;;;;8.43;2.20;;;17.00;99.90;;;;;;5073048;28;20500;-53
2023/08/03 04:25:19;;;;;;;3.30;1.40;;;17.00;99.90;;;;;;5069998;28;20031;-53
2023/08/03 04:27:45;;;;;;;3.25;1.20;;;17.00;99.90;;;;;;5073287;28;20028;-54
2023/08/03 04:30:13;;;;;;;7.07;1.42;;;17.00;99.90;;;;;;5072966;28;20021;-54
2023/08/03 04:32:39;;;;;;;7.13;1.38;;;17.00;99.90;;;;;;5068827;28;20063;-53
2023/08/03 04:35:05;;;;;;;4.43;1.10;;;17.00;99.90;;;;;;5066960;28;20406;-54
2023/08/03 04:37:30;;;;;;;13.10;1.38;;;16.90;99.90;;;;;;5044718;28;20017;-53
2023/08/03 04:39:56;;;;;;;4.88;1.30;;;16.90;99.90;;;;;;5051496;28;20434;-51
2023/08/03 04:42:22;;;;;;;3.83;1.10;;;16.90;99.90;;;;;;5052983;28;20020;-55
2023/08/03 04:44:49;;;;;;;3.63;1.10;;;16.90;99.90;;;;;;5053693;28;20021;-54
2023/08/03 04:47:15;;;;;;;4.25;0.93;;;16.90;99.90;;;;;;5068472;28;20032;-54
2023/08/03 04:49:41;;;;;;;4.28;1.10;;;16.90;99.90;;;;;;5072755;28;20021;-53
2023/08/03 04:52:07;;;;;;;6.68;1.33;;;16.90;99.90;;;;;;5072126;28;20416;-54
2023/08/03 04:54:33;;;;;;;5.18;1.35;;;16.90;99.90;;;;;;5069297;28;20030;-53
2023/08/03 04:56:59;;;;;;;4.90;1.20;;;16.90;99.90;;;;;;5072494;28;20052;-55
2023/08/03 04:59:24;;;;;;;1.75;1.17;;;16.90;99.90;;;;;;5071425;28;20017;-55
2023/08/03 05:01:50;;;;;;;4.75;2.03;;;16.90;99.90;;;;;;5067965;28;20142;-55
2023/08/03 05:04:16;;;;;;;10.48;1.33;;;16.90;99.90;;;;;;5066417;28;20490;-54
2023/08/03 05:06:41;;;;;;;8.38;1.55;;;16.90;99.90;;;;;;5053486;28;20030;-55
2023/08/03 05:09:07;;;;;;;7.28;1.10;;;16.90;99.90;;;;;;5047389;28;20478;-54
2023/08/03 05:11:33;;;;;;;8.20;1.70;;;16.90;99.90;;;;;;5052477;28;20025;-56
2023/08/03 05:13:58;;;;;;;5.28;1.23;;;16.90;99.90;;;;;;5052719;28;20108;-52
2023/08/03 05:16:24;;;;;;;14.40;2.60;;;16.90;99.90;;;;;;5055488;28;20056;-54
2023/08/03 05:18:50;;;;;;;8.80;1.90;;;17.00;99.90;;;;;;5070873;28;20017;-48
2023/08/03 05:21:17;;;;;;;11.80;1.83;;;17.00;99.90;;;;;;5071424;28;20511;-55
2023/08/03 05:23:43;;;;;;;14.27;1.98;;;17.00;99.90;;;;;;5072345;28;20202;-55
2023/08/03 05:26:09;;;;;;;9.73;1.90;;;17.00;99.90;;;;;;5071122;28;20025;-56
2023/08/03 05:28:34;;;;;;;12.10;1.70;;;17.00;99.90;;;;;;5072377;28;20103;-52
2023/08/03 05:31:00;;;;;;;15.68;2.13;;;17.00;99.90;;;;;;5064791;28;20107;-53
2023/08/03 05:33:26;;;;;;;13.85;1.88;;;17.00;99.90;;;;;;5072248;28;20473;-54
2023/08/03 05:35:52;;;;;;;9.30;1.67;;;17.00;99.90;;;;;;5072273;28;20016;-55
2023/08/03 05:38:18;;;;;;;8.60;1.95;;;17.00;99.90;;;;;;5061028;28;20171;-39
2023/08/03 05:40:43;;;;;;;8.45;1.52;;;17.00;99.90;;;;;;5068448;28;20017;-38
2023/08/03 05:43:10;;;;;;;7.03;1.50;;;17.00;99.90;;;;;;5072224;28;20082;-40
2023/08/03 05:45:49;;;;;;;6.97;1.50;;;16.90;99.90;;;;;;5068229;28;20040;-41
2023/08/03 05:48:20;;;;;;;8.82;1.65;;;16.90;99.90;;;;;;5072138;28;20274;-40
2023/08/03 05:50:47;;;;;;;7.85;1.83;;;16.90;99.90;;;;;;5070727;28;20020;-40
2023/08/03 05:53:13;;;;;;;8.95;1.35;;;16.90;99.90;;;;;;5068106;28;20168;-39
2023/08/03 05:55:39;;;;;;;11.63;1.42;;;16.90;99.90;;;;;;5063746;28;20115;-43
2023/08/03 05:58:08;;;;;;;8.23;1.48;;;17.00;99.90;;;;;;5072350;28;20463;-40
2023/08/03 06:00:34;;;;;;;9.05;1.73;;;17.00;99.90;;;;;;5069285;28;20021;-39
2023/08/03 06:03:00;;;;;;;6.68;1.38;;;17.00;99.90;;;;;;5070619;28;20527;-41
2023/08/03 06:05:38;;;;;;;12.88;2.03;;;17.10;99.90;;;;;;5075001;28;20070;-39
2023/08/03 06:08:24;;;;;;;4.95;1.30;;;17.10;99.90;;;;;;5072705;28;20482;-41
2023/08/03 06:10:54;;;;;;;10.00;1.58;;;17.10;99.90;;;;;;5074435;28;20171;-39
2023/08/03 06:13:25;;;;;;;11.43;1.77;;;17.10;99.90;;;;;;5075645;28;20385;-43
2023/08/03 06:15:51;;;;;;;7.50;1.20;;;17.10;99.90;;;;;;5067262;28;20094;-42
2023/08/03 06:18:18;;;;;;;7.50;1.63;;;17.10;99.90;;;;;;5044543;28;20025;-42
2023/08/03 06:20:52;;;;;;;6.85;1.13;;;17.10;99.90;;;;;;5055245;28;20024;-39
2023/08/03 06:23:23;;;;;;;9.05;1.58;;;17.20;99.90;;;;;;5055156;28;20029;-41
2023/08/03 06:25:50;;;;;;;8.38;1.52;;;17.20;99.90;;;;;;5055100;28;20051;-42
2023/08/03 06:28:18;;;;;;;10.02;1.35;;;17.20;99.90;;;;;;5055178;28;20032;-42
2023/08/03 06:30:45;;;;;;;6.50;1.02;;;17.20;99.90;;;;;;5052345;28;20038;-42
2023/08/03 06:33:13;;;;;;;9.05;1.50;;;17.30;99.90;;;;;;5075019;28;20029;-41
2023/08/03 06:35:44;;;;;;;9.98;1.20;;;17.30;99.90;;;;;;5075066;28;20024;-39
2023/08/03 06:38:12;;;;;;;8.45;1.83;;;17.30;99.90;;;;;;5066115;28;20029;-39
2023/08/03 06:40:40;;;;;;;5.63;1.25;;;17.30;99.90;;;;;;5054375;28;20509;-42
2023/08/03 06:43:07;;;;;;;3.47;1.80;;;17.30;99.90;;;;;;5073485;28;20103;-41
2023/08/03 06:45:33;;;;;;;4.72;1.40;;;17.30;99.90;;;;;;5073827;28;20032;-40
2023/08/03 06:48:00;;;;;;;7.28;1.40;;;17.30;99.90;;;;;;5068767;28;20459;-40
2023/08/03 06:50:29;;;;;;;9.18;0.90;;;17.30;99.90;;;;;;5072111;28;20025;-54
2023/08/03 06:52:55;;;;;;;2.58;1.70;;;17.30;99.90;;;;;;5074998;28;20028;-55
2023/08/03 06:55:20;;;;;;;8.50;1.00;;;17.40;99.90;;;;;;5074739;28;20032;-55
2023/08/03 06:57:47;;;;;;;5.65;1.20;;;17.40;99.90;;;;;;5074946;28;20025;-55
2023/08/03 07:00:14;;;;;;;13.60;2.28;;;17.50;99.90;;;;;;5065018;28;20047;-55
2023/08/03 07:02:40;;;;;;;8.65;1.45;;;17.50;99.90;;;;;;5063947;28;20115;-53
2023/08/03 07:05:06;;;;;;;5.72;1.63;;;17.50;99.90;;;;;;5045873;28;20036;-53
2023/08/03 07:07:32;;;;;;;11.07;1.67;;;17.50;99.90;;;;;;5050925;28;20021;-54
2023/08/03 07:09:59;;;;;;;8.52;1.33;;;17.50;99.90;;;;;;5054578;28;20474;-55
2023/08/03 07:12:26;;;;;;;6.53;2.03;;;17.40;99.90;;;;;;5056792;28;20044;-53
2023/08/03 07:14:51;;;;;;;8.10;1.45;;;17.30;99.90;;;;;;5074142;28;20017;-54
2023/08/03 07:17:17;;;;;;;11.80;1.92;;;17.40;99.90;;;;;;5067758;28;20036;-54
2023/08/03 07:19:43;;;;;;;8.10;1.73;;;17.40;99.90;;;;;;5069121;28;20074;-58
2023/08/03 07:22:09;;;;;;;11.07;2.45;;;17.40;99.90;;;;;;5074148;28;20020;-52
2023/08/03 07:24:35;;;;;;;10.07;1.80;;;17.30;99.90;;;;;;5074261;28;20510;-53
2023/08/03 07:27:02;;;;;;;9.88;1.42;;;17.30;99.90;;;;;;5070119;28;20056;-54
2023/08/03 07:29:28;;;;;;;9.35;1.90;;;17.30;99.90;;;;;;5065089;28;20028;-54
2023/08/03 07:31:55;;;;;;;6.63;2.75;;;17.20;99.90;;;;;;5069742;28;20032;-54
2023/08/03 07:34:20;;;;;;;9.45;1.58;;;17.30;99.90;;;;;;5073814;28;20536;-55
2023/08/03 07:36:46;;;;;;;14.90;1.95;;;17.20;99.90;;;;;;5072069;28;20100;-55
2023/08/03 07:39:12;;;;;;;9.23;1.67;;;17.30;99.90;;;;;;5063212;28;20055;-52
2023/08/03 07:41:38;;;;;;;13.35;1.67;;;17.50;99.90;;;;;;5073685;28;20024;-55
2023/08/03 07:44:04;;;;;;;5.70;2.05;;;17.50;99.90;;;;;;5073915;28;20369;-54
2023/08/03 07:46:30;;;;;;;8.35;1.95;;;17.60;99.90;;;;;;5040588;28;20040;-54
2023/08/03 07:48:57;;;;;;;7.45;1.60;;;17.60;99.90;;;;;;5052595;28;20029;-53
2023/08/03 07:51:23;;;;;;;6.85;2.10;;;17.50;99.90;;;;;;5044473;28;20432;-52
2023/08/03 07:53:49;;;;;;;5.28;2.08;;;17.50;99.90;;;;;;5033830;28;20025;-51
2023/08/03 07:56:19;;;;;;;5.82;1.88;;;17.50;99.90;;;;;;5033404;28;20052;-53
2023/08/03 07:58:46;;;;;;;7.90;1.70;;;17.60;99.90;;;;;;5033809;28;20021;-54
2023/08/03 08:01:12;;;;;;;9.77;2.63;;;17.70;99.90;;;;;;5033469;28;20021;-55
2023/08/03 08:03:39;;;;;;;6.03;2.60;;;17.70;99.90;;;;;;5043269;28;20500;-51
2023/08/03 08:06:08;;;;;;;9.23;2.22;;;17.80;99.90;;;;;;5052246;28;20100;-54
2023/08/03 08:08:34;;;;;;;15.55;2.70;;;17.80;99.90;;;;;;5053245;28;20112;-54
2023/08/03 08:11:00;;;;;;;13.35;3.25;;;18.00;99.90;;;;;;5053228;28;20488;-55
2023/08/03 08:13:26;;;;;;;11.05;3.20;;;17.90;99.90;;;;;;5052874;28;20470;-57
2023/08/03 08:16:00;;;;;;;17.92;3.17;;;18.00;99.90;;;;;;5052279;28;20108;-53
2023/08/03 08:18:29;;;;;;;8.25;2.17;;;18.00;99.90;;;;;;5053143;28;20025;-55
2023/08/03 08:21:07;;;;;;;8.65;2.10;;;18.10;99.90;;;;;;5053112;28;20017;-54
2023/08/03 08:23:33;;;;;;;9.48;2.30;;;18.20;99.90;;;;;;5051964;28;20060;-53
2023/08/03 08:25:59;;;;;;;8.07;2.70;;;18.20;99.90;;;;;;5053466;28;20071;-41
2023/08/03 08:28:26;;;;;;;10.98;2.70;;;18.30;99.90;;;;;;5052891;28;20021;-47
2023/08/03 08:30:51;;;;;;;2.60;1.17;;;18.30;99.90;;;;;;5052944;28;20064;-39
2023/08/03 08:33:18;;;;;;;12.13;2.70;;;18.30;99.90;;;;;;5052861;28;20056;-41
2023/08/03 08:35:45;;;;;;;11.65;1.83;;;18.20;99.90;;;;;;5052784;28;20017;-38
2023/08/03 08:38:15;;;;;;;5.80;2.22;;;18.20;99.90;;;;;;5053082;28;20013;-39
2023/08/03 08:40:42;;;;;;;6.20;2.40;;;18.00;99.90;;;;;;5051617;28;20017;-41
2023/08/03 08:43:08;;;;;;;8.95;1.65;;;18.00;99.90;;;;;;5053104;28;20465;-43
2023/08/03 08:45:38;;;;;;;7.65;2.20;;;17.90;99.90;;;;;;5053021;28;20147;-40
2023/08/03 08:48:05;;;;;;;7.22;2.92;;;17.90;99.90;;;;;;5052698;28;20138;-40
2023/08/03 08:50:32;;;;;;;3.55;1.70;;;18.00;99.90;;;;;;5052999;28;20017;-39
2023/08/03 08:52:58;;;;;;;7.67;1.87;;;18.20;99.90;;;;;;5052575;28;20083;-40
2023/08/03 08:55:27;;;;;;;5.18;2.28;;;18.30;99.90;;;;;;5052477;28;20106;-43
2023/08/03 08:57:53;;;;;;;3.33;2.45;;;18.40;99.90;;;;;;5051574;28;20027;-39
2023/08/03 09:00:20;;;;;;;2.40;1.48;;;18.60;99.90;;;;;;5052684;28;20059;-44
2023/08/03 09:02:47;;;;;;;6.15;1.70;;;18.90;99.90;;;;;;5052601;28;20029;-53
2023/08/03 09:05:24;;;;;;;4.85;1.08;;;19.10;99.90;;;;;;5052502;28;20537;-55
2023/08/03 09:08:02;;;;;;;4.35;1.30;;;19.40;99.90;;;;;;5052764;28;20028;-56
2023/08/03 09:10:28;;;;;;;4.72;1.75;;;19.50;99.90;;;;;;5051279;28;20041;-53
2023/08/03 09:12:54;;;;;;;8.15;1.20;;;19.60;99.90;;;;;;5045460;28;20098;-56
2023/08/03 09:15:40;;;;;;;5.82;1.30;;;19.80;99.90;;;;;;5041492;28;20025;-57
2023/08/03 09:18:07;;;;;;;3.75;1.25;;;20.00;99.90;;;;;;5052793;28;20432;-56
2023/08/03 09:20:33;;;;;;;7.65;1.85;;;20.20;99.90;;;;;;5036794;28;20457;-57
2023/08/03 09:23:00;;;;;;;6.28;1.42;;;20.20;99.90;;;;;;5032494;28;20490;-57
2023/08/03 09:25:26;;;;;;;5.40;1.02;;;20.10;99.90;;;;;;5032428;28;20025;-57
2023/08/03 09:27:54;;;;;;;3.45;1.00;;;20.20;99.90;;;;;;5032492;28;20042;-57
2023/08/03 09:30:20;;;;;;;3.28;1.15;;;20.10;99.90;;;;;;5032461;28;20033;-57
2023/08/03 09:32:46;;;;;;;2.88;1.17;;;19.80;99.90;;;;;;5037054;28;20422;-43
2023/08/03 09:35:17;;;;;;;6.00;2.03;;;19.40;99.90;;;;;;5052545;28;20029;-44
2023/08/03 09:37:43;;;;;;;5.80;1.52;;;19.10;99.90;;;;;;5052283;28;20029;-48
2023/08/03 09:40:09;;;;;;;3.92;1.98;;;18.80;99.90;;;;;;5055346;28;20021;-57
2023/08/03 09:42:37;;;;;;;5.18;1.95;;;18.70;99.90;;;;;;5056123;28;20032;-53
2023/08/03 09:45:05;;;;;;;8.32;1.95;;;18.70;99.90;;;;;;5055974;28;20029;-55
2023/08/03 09:47:32;;;;;;;8.40;1.77;;;18.90;99.90;;;;;;5054945;28;20025;-55
2023/08/03 09:49:58;;;;;;;12.75;2.20;;;19.30;99.90;;;;;;5056028;28;20104;-57
2023/08/03 09:52:29;;;;;;;8.75;1.80;;;19.60;99.90;;;;;;5056112;28;20489;-57
2023/08/03 09:55:00;;;;;;;3.15;1.35;;;19.90;99.90;;;;;;5055999;28;20024;-55
2023/08/03 09:57:32;;;;;;;7.65;1.70;;;20.30;99.90;;;;;;5055839;28;20105;-56
2023/08/03 10:00:03;;;;;;;6.65;1.50;;;20.40;99.90;;;;;;5055818;28;20107;-56
2023/08/03 10:02:34;;;;;;;2.95;1.10;;;20.20;99.90;;;;;;5056135;28;20021;-56
2023/08/03 10:05:03;;;;;;;0.90;0.90;;;19.50;99.90;;;;;;5054582;28;20033;-55
2023/08/03 10:07:36;;;;;;;1.17;1.05;;;18.90;99.90;;;;;;5055555;28;20063;-55
2023/08/03 10:10:04;;;;;;;9.15;1.20;;;18.30;99.90;;;;;;5055551;28;20036;-42
2023/08/03 10:12:43;;;;;;;9.60;1.15;;;18.10;99.90;;;;;;5055412;28;20087;-45
2023/08/03 10:15:10;;;;;;;9.13;1.90;;;17.90;99.90;;;;;;5055480;28;20600;-42
2023/08/03 10:17:38;;;;;;;10.93;1.45;;;17.90;99.90;;;;;;5055403;28;20075;-43
2023/08/03 10:20:04;;;;;;;3.95;1.73;;;18.20;99.90;;;;;;5055283;28;20056;-42
2023/08/03 10:22:30;;;;;;;10.00;1.80;;;18.70;99.90;;;;;;5054581;28;20021;-44
2023/08/03 10:25:15;;;;;;;3.70;1.38;;;19.10;99.90;;;;;;5055227;28;20362;-45
2023/08/03 10:27:41;;;;;;;5.45;1.27;;;19.50;99.90;;;;;;5055218;28;20051;-42
2023/08/03 10:30:07;;;;;;;4.53;0.88;;;19.30;99.90;;;;;;5055180;28;20506;-42
2023/08/03 10:32:32;;;;;;;6.43;1.02;;;19.40;99.90;;;;;;5055359;28;20032;-41
2023/08/03 10:35:38;;;;;;;4.82;0.75;;;19.50;99.90;;;;;;5054998;28;20036;-43
2023/08/03 10:38:18;;;;;;;2.40;1.02;;;19.20;99.90;;;;;;5055008;28;20032;-39
2023/08/03 10:40:43;;;;;;;1.95;0.52;;;19.10;99.90;;;;;;5054297;28;20028;-43
2023/08/03 10:43:09;;;;;;;7.63;1.02;;;19.00;99.90;;;;;;5055081;28;20025;-44
2023/08/03 10:45:36;;;;;;;2.05;0.82;;;19.00;99.90;;;;;;5054873;28;20082;-41
2023/08/03 10:48:37;;;;;;;4.10;1.13;;;19.10;99.90;;;;;;5054773;28;20025;-56
2023/08/03 10:51:03;;;;;;;3.63;1.05;;;19.00;99.90;;;;;;5053754;28;20523;-55
2023/08/03 10:53:29;;;;;;;4.30;0.70;;;18.80;99.90;;;;;;5054649;28;20029;-56
2023/08/03 10:56:05;;;;;;;3.35;0.70;;;18.60;99.90;;;;;;5053536;28;20048;-55
2023/08/03 10:58:30;;;;;;;2.58;1.08;;;18.40;99.90;;;;;;5054813;28;20048;-54
2023/08/03 11:00:56;;;;;;;9.88;1.88;;;18.30;99.90;;;;;;5054551;28;20029;-56
2023/08/03 11:03:22;;;;;;;5.30;1.95;;;18.10;99.90;;;;;;5054501;28;20087;-55
2023/08/03 11:05:55;;;;;;;4.88;1.52;;;18.00;99.90;;;;;;5054431;28;20024;-62
2023/08/03 11:08:22;;;;;;;2.55;1.52;;;18.00;99.90;;;;;;5054320;28;20029;-54
2023/08/03 11:10:49;;;;;;;5.93;1.17;;;18.00;99.90;;;;;;5054672;28;20024;-54
2023/08/03 11:13:15;;;;;;;;;;;18.10;99.90;;;;;;5053906;28;20389;-55
2023/08/03 11:15:41;;;;;;;11.50;1.40;;;18.30;99.90;;;;;;5054296;28;19905;-56
2023/08/03 11:18:13;;;;;;;8.90;1.70;;;18.40;99.90;;;;;;5052911;28;20421;-56
2023/08/03 11:20:42;;;;;;;7.18;1.02;;;18.50;99.90;;;;;;5054345;28;20021;-56
2023/08/03 11:23:11;;;;;;;7.25;1.38;;;18.50;99.90;;;;;;5054417;28;20525;-56
2023/08/03 11:25:39;;;;;;;2.65;0.82;;;18.40;99.90;;;;;;5044703;28;20025;-55
2023/08/03 11:28:04;;;;;;;4.13;0.80;;;18.20;99.90;;;;;;5036269;28;20148;-55
2023/08/03 11:30:52;;;;;;;3.85;0.90;;;18.20;99.90;;;;;;5053237;28;20021;-43
2023/08/03 11:33:17;;;;;;;;;;;18.20;99.90;;;;;;5047939;28;20017;-43
2023/08/03 11:35:43;;;;;;;3.58;1.05;;;18.20;99.90;;;;;;5054206;28;19954;-44
2023/08/03 11:38:10;;;;;;;8.00;0.90;;;18.30;99.90;;;;;;5054085;28;20021;-42
2023/08/03 11:40:36;;;;;;;4.60;1.35;;;18.50;99.90;;;;;;5053755;28;20489;-42
2023/08/03 11:43:02;;;;;;;2.78;0.75;;;18.60;99.90;;;;;;5053761;28;20029;-46
2023/08/03 11:45:29;;;;;;;2.53;1.10;;;18.50;99.90;;;;;;5053616;28;20490;-45
2023/08/03 11:47:58;;;;;;;8.97;1.70;;;18.50;99.90;;;;;;5041069;28;20025;-41
2023/08/03 11:50:25;;;;;;;2.22;0.60;;;18.40;99.90;;;;;;5033891;28;20272;-44
2023/08/03 11:52:58;;;;;;;6.07;1.55;;;18.50;99.90;;;;;;5033586;28;20029;-56
2023/08/03 11:55:34;;;;;;;8.73;1.67;;;18.50;99.90;;;;;;5033445;28;20049;-56
2023/08/03 11:58:10;;;;;;;6.28;1.90;;;18.50;99.90;;;;;;5033521;28;20013;-54
2023/08/03 12:00:40;;;;;;;3.92;1.17;;;18.40;99.90;;;;;;5033716;28;20025;-55
2023/08/03 12:03:06;;;;;;;7.40;1.75;;;18.50;99.90;;;;;;5033799;28;20083;-55
2023/08/03 12:06:05;;;;;;;4.25;1.20;;;18.40;99.90;;;;;;5050335;28;20100;-53
2023/08/03 12:08:52;;;;;;;4.35;1.20;;;18.40;99.90;;;;;;5051921;28;20041;-41
2023/08/03 12:11:19;;;;;;;4.22;1.20;;;18.50;99.90;;;;;;5053286;28;20363;-42
2023/08/03 12:13:45;;;;;;;3.33;1.00;;;18.70;99.90;;;;;;5053410;28;20491;-40
2023/08/03 12:16:11;;;;;;;5.13;0.98;;;19.00;99.90;;;;;;5053182;28;20100;-46
2023/08/03 12:18:36;;;;;;;2.83;1.13;;;19.00;99.90;;;;;;5053185;28;20028;-44
2023/08/03 12:21:03;;;;;;;15.70;2.25;;;18.90;99.90;;;;;;5047633;28;20018;-40
2023/08/03 12:23:28;;;;;;;11.63;2.13;;;18.80;99.90;;;;;;5033331;28;20029;-43
2023/08/03 12:25:54;;;;;;;4.53;1.27;;;18.80;99.90;;;;;;5033042;28;20018;-42
2023/08/03 12:28:21;;;;;;;9.60;1.83;;;18.70;99.90;;;;;;5033369;28;20022;-48
2023/08/03 12:30:47;;;;;;;5.70;2.33;;;18.70;99.90;;;;;;5033035;28;20025;-42
2023/08/03 12:33:12;;;;;;;5.75;1.23;;;18.80;99.90;;;;;;5038177;28;20027;-44
2023/08/03 12:35:38;;;;;;;8.88;1.83;;;18.80;99.90;;;;;;5053101;28;20100;-41
2023/08/03 12:38:04;;;;;;;10.55;2.22;;;18.90;99.90;;;;;;5047432;28;20051;-47
2023/08/03 12:40:30;;;;;;;5.45;1.98;;;18.90;99.90;;;;;;5032850;28;20014;-43
2023/08/03 12:42:56;;;;;;;5.13;1.23;;;19.00;99.90;;;;;;5033062;28;20028;-43
2023/08/03 12:45:23;;;;;;;5.65;2.08;;;18.90;99.90;;;;;;5032869;28;20500;-42